sensor_id;sensor_type;location;lat;lon;timestamp;P1;durP1;ratioP1;P2;durP2;ratioP2
74616;SDS011;63123;50.906;4.198;2022-10-16T00:01:57;1.63;;;1.52;;
74616;SDS011;63123;50.906;4.198;2022-10-16T00:04:23;1.77;;;1.50;;
74616;SDS011;63123;50.906;4.198;2022-10-16T00:06:48;1.80;;;1.65;;
74616;SDS011;63123;50.906;4.198;2022-10-16T00:09:14;2.33;;;1.50;;
74616;SDS011;63123;50.906;4.198;2022-10-16T00:11:40;1.40;;;1.27;;
74616;SDS011;63123;50.906;4.198;2022-10-16T00:14:10;2.13;;;1.60;;
74616;SDS011;63123;50.906;4.198;2022-10-16T00:16:37;2.00;;;1.33;;
74616;SDS011;63123;50.906;4.198;2022-10-16T00:19:03;2.13;;;1.65;;
74616;SDS011;63123;50.906;4.198;2022-10-16T00:21:30;1.75;;;1.40;;
74616;SDS011;63123;50.906;4.198;2022-10-16T00:23:57;2.95;;;1.42;;
74616;SDS011;63123;50.906;4.198;2022-10-16T00:26:26;2.13;;;1.42;;
74616;SDS011;63123;50.906;4.198;2022-10-16T00:28:53;1.27;;;1.17;;
74616;SDS011;63123;50.906;4.198;2022-10-16T00:31:19;2.45;;;1.50;;
74616;SDS011;63123;50.906;4.198;2022-10-16T00:33:46;2.00;;;1.38;;
74616;SDS011;63123;50.906;4.198;2022-10-16T00:36:13;1.65;;;1.55;;
74616;SDS011;63123;50.906;4.198;2022-10-16T00:38:40;1.38;;;1.27;;
74616;SDS011;63123;50.906;4.198;2022-10-16T00:41:06;2.05;;;1.48;;
74616;SDS011;63123;50.906;4.198;2022-10-16T00:46:10;2.83;;;1.73;;
74616;SDS011;63123;50.906;4.198;2022-10-16T00:48:43;1.90;;;1.40;;
74616;SDS011;63123;50.906;4.198;2022-10-16T00:51:13;1.98;;;1.50;;
74616;SDS011;63123;50.906;4.198;2022-10-16T00:53:39;1.20;;;1.10;;
74616;SDS011;63123;50.906;4.198;2022-10-16T00:56:05;1.80;;;1.48;;
74616;SDS011;63123;50.906;4.198;2022-10-16T00:58:31;1.88;;;1.38;;
74616;SDS011;63123;50.906;4.198;2022-10-16T01:00:57;1.70;;;1.20;;
74616;SDS011;63123;50.906;4.198;2022-10-16T01:03:30;1.40;;;1.30;;
74616;SDS011;63123;50.906;4.198;2022-10-16T01:06:00;1.85;;;1.55;;
74616;SDS011;63123;50.906;4.198;2022-10-16T01:08:39;1.83;;;1.23;;
74616;SDS011;63123;50.906;4.198;2022-10-16T01:11:19;1.67;;;1.10;;
74616;SDS011;63123;50.906;4.198;2022-10-16T01:13:53;1.90;;;1.23;;
74616;SDS011;63123;50.906;4.198;2022-10-16T01:19:05;2.03;;;1.63;;
74616;SDS011;63123;50.906;4.198;2022-10-16T01:21:38;1.63;;;1.35;;
74616;SDS011;63123;50.906;4.198;2022-10-16T01:27:38;1.30;;;1.20;;
74616;SDS011;63123;50.906;4.198;2022-10-16T01:30:06;1.95;;;1.45;;
74616;SDS011;63123;50.906;4.198;2022-10-16T01:35:23;2.38;;;1.40;;
74616;SDS011;63123;50.906;4.198;2022-10-16T01:38:00;2.05;;;1.20;;
74616;SDS011;63123;50.906;4.198;2022-10-16T01:40:33;1.63;;;1.08;;
74616;SDS011;63123;50.906;4.198;2022-10-16T01:43:11;1.52;;;1.10;;
74616;SDS011;63123;50.906;4.198;2022-10-16T01:45:40;1.63;;;1.42;;
74616;SDS011;63123;50.906;4.198;2022-10-16T01:48:09;1.33;;;1.13;;
74616;SDS011;63123;50.906;4.198;2022-10-16T01:50:39;1.30;;;1.20;;
74616;SDS011;63123;50.906;4.198;2022-10-16T01:53:07;1.63;;;1.40;;
74616;SDS011;63123;50.906;4.198;2022-10-16T01:55:36;2.83;;;1.30;;
74616;SDS011;63123;50.906;4.198;2022-10-16T01:58:07;1.13;;;1.02;;
74616;SDS011;63123;50.906;4.198;2022-10-16T02:00:34;1.83;;;1.30;;
74616;SDS011;63123;50.906;4.198;2022-10-16T02:03:02;1.40;;;1.25;;
74616;SDS011;63123;50.906;4.198;2022-10-16T02:05:34;1.75;;;1.17;;
74616;SDS011;63123;50.906;4.198;2022-10-16T02:08:05;1.02;;;0.85;;
74616;SDS011;63123;50.906;4.198;2022-10-16T02:10:31;1.70;;;1.35;;
74616;SDS011;63123;50.906;4.198;2022-10-16T02:12:58;1.40;;;1.25;;
74616;SDS011;63123;50.906;4.198;2022-10-16T02:15:28;1.20;;;0.98;;
74616;SDS011;63123;50.906;4.198;2022-10-16T02:17:54;1.10;;;1.00;;
74616;SDS011;63123;50.906;4.198;2022-10-16T02:20:21;1.27;;;0.90;;
74616;SDS011;63123;50.906;4.198;2022-10-16T02:22:52;1.30;;;1.02;;
74616;SDS011;63123;50.906;4.198;2022-10-16T02:25:28;1.75;;;1.65;;
74616;SDS011;63123;50.906;4.198;2022-10-16T02:28:02;3.45;;;1.38;;
74616;SDS011;63123;50.906;4.198;2022-10-16T02:30:36;1.42;;;1.10;;
74616;SDS011;63123;50.906;4.198;2022-10-16T02:33:12;1.75;;;1.30;;
74616;SDS011;63123;50.906;4.198;2022-10-16T02:35:39;1.73;;;1.27;;
74616;SDS011;63123;50.906;4.198;2022-10-16T02:38:06;1.13;;;1.00;;
74616;SDS011;63123;50.906;4.198;2022-10-16T02:40:33;2.28;;;1.13;;
74616;SDS011;63123;50.906;4.198;2022-10-16T02:43:00;1.42;;;1.02;;
74616;SDS011;63123;50.906;4.198;2022-10-16T02:45:29;1.02;;;0.80;;
74616;SDS011;63123;50.906;4.198;2022-10-16T02:47:54;1.20;;;1.10;;
74616;SDS011;63123;50.906;4.198;2022-10-16T02:50:20;0.98;;;0.88;;
74616;SDS011;63123;50.906;4.198;2022-10-16T02:52:46;1.30;;;1.00;;
74616;SDS011;63123;50.906;4.198;2022-10-16T02:55:12;1.63;;;1.42;;
74616;SDS011;63123;50.906;4.198;2022-10-16T02:57:37;1.30;;;1.10;;
74616;SDS011;63123;50.906;4.198;2022-10-16T03:00:05;1.08;;;0.90;;
74616;SDS011;63123;50.906;4.198;2022-10-16T03:02:34;1.88;;;1.48;;
74616;SDS011;63123;50.906;4.198;2022-10-16T03:05:00;1.42;;;1.08;;
74616;SDS011;63123;50.906;4.198;2022-10-16T03:07:26;1.40;;;1.30;;
74616;SDS011;63123;50.906;4.198;2022-10-16T03:09:51;1.10;;;1.00;;
74616;SDS011;63123;50.906;4.198;2022-10-16T03:12:17;1.30;;;1.13;;
74616;SDS011;63123;50.906;4.198;2022-10-16T03:14:42;1.38;;;1.27;;
74616;SDS011;63123;50.906;4.198;2022-10-16T03:17:08;1.48;;;1.00;;
74616;SDS011;63123;50.906;4.198;2022-10-16T03:19:34;1.30;;;0.90;;
74616;SDS011;63123;50.906;4.198;2022-10-16T03:22:00;1.23;;;1.00;;
74616;SDS011;63123;50.906;4.198;2022-10-16T03:24:26;1.10;;;0.93;;
74616;SDS011;63123;50.906;4.198;2022-10-16T03:26:52;1.45;;;1.15;;
74616;SDS011;63123;50.906;4.198;2022-10-16T03:29:17;1.20;;;1.10;;
74616;SDS011;63123;50.906;4.198;2022-10-16T03:31:43;1.10;;;1.00;;
74616;SDS011;63123;50.906;4.198;2022-10-16T03:34:08;1.33;;;1.20;;
74616;SDS011;63123;50.906;4.198;2022-10-16T03:36:34;1.10;;;1.00;;
74616;SDS011;63123;50.906;4.198;2022-10-16T03:38:59;1.27;;;1.10;;
74616;SDS011;63123;50.906;4.198;2022-10-16T03:41:25;1.83;;;1.35;;
74616;SDS011;63123;50.906;4.198;2022-10-16T03:43:51;1.00;;;0.95;;
74616;SDS011;63123;50.906;4.198;2022-10-16T03:46:16;1.27;;;1.08;;
74616;SDS011;63123;50.906;4.198;2022-10-16T03:48:42;1.25;;;0.90;;
74616;SDS011;63123;50.906;4.198;2022-10-16T03:51:07;1.35;;;0.98;;
74616;SDS011;63123;50.906;4.198;2022-10-16T03:53:33;1.02;;;0.90;;
74616;SDS011;63123;50.906;4.198;2022-10-16T03:55:58;1.83;;;1.20;;
74616;SDS011;63123;50.906;4.198;2022-10-16T03:58:25;1.00;;;0.90;;
74616;SDS011;63123;50.906;4.198;2022-10-16T04:00:50;1.10;;;0.90;;
74616;SDS011;63123;50.906;4.198;2022-10-16T04:03:16;1.33;;;0.75;;
74616;SDS011;63123;50.906;4.198;2022-10-16T04:05:43;1.15;;;0.90;;
74616;SDS011;63123;50.906;4.198;2022-10-16T04:08:09;1.15;;;0.85;;
74616;SDS011;63123;50.906;4.198;2022-10-16T04:10:35;1.45;;;0.90;;
74616;SDS011;63123;50.906;4.198;2022-10-16T04:13:01;1.35;;;1.20;;
74616;SDS011;63123;50.906;4.198;2022-10-16T04:15:26;1.20;;;0.95;;
74616;SDS011;63123;50.906;4.198;2022-10-16T04:17:52;1.00;;;0.90;;
74616;SDS011;63123;50.906;4.198;2022-10-16T04:20:17;1.23;;;1.08;;
74616;SDS011;63123;50.906;4.198;2022-10-16T04:22:43;1.35;;;1.10;;
74616;SDS011;63123;50.906;4.198;2022-10-16T04:25:09;1.50;;;1.20;;
74616;SDS011;63123;50.906;4.198;2022-10-16T04:27:36;1.50;;;1.00;;
74616;SDS011;63123;50.906;4.198;2022-10-16T04:30:02;0.90;;;0.80;;
74616;SDS011;63123;50.906;4.198;2022-10-16T04:32:29;1.25;;;1.00;;
74616;SDS011;63123;50.906;4.198;2022-10-16T04:34:54;0.88;;;0.80;;
74616;SDS011;63123;50.906;4.198;2022-10-16T04:37:23;1.20;;;0.90;;
74616;SDS011;63123;50.906;4.198;2022-10-16T04:39:52;1.55;;;1.45;;
74616;SDS011;63123;50.906;4.198;2022-10-16T04:42:18;1.17;;;1.05;;
74616;SDS011;63123;50.906;4.198;2022-10-16T04:44:45;1.23;;;0.85;;
74616;SDS011;63123;50.906;4.198;2022-10-16T04:47:10;1.42;;;0.95;;
74616;SDS011;63123;50.906;4.198;2022-10-16T04:49:36;1.45;;;1.00;;
74616;SDS011;63123;50.906;4.198;2022-10-16T04:52:02;1.98;;;0.98;;
74616;SDS011;63123;50.906;4.198;2022-10-16T04:54:28;1.77;;;0.98;;
74616;SDS011;63123;50.906;4.198;2022-10-16T04:56:53;0.68;;;0.68;;
74616;SDS011;63123;50.906;4.198;2022-10-16T04:59:19;0.80;;;0.80;;
74616;SDS011;63123;50.906;4.198;2022-10-16T05:01:45;1.27;;;1.00;;
74616;SDS011;63123;50.906;4.198;2022-10-16T05:04:11;1.30;;;0.95;;
74616;SDS011;63123;50.906;4.198;2022-10-16T05:06:37;0.95;;;0.80;;
74616;SDS011;63123;50.906;4.198;2022-10-16T05:09:03;1.00;;;0.80;;
74616;SDS011;63123;50.906;4.198;2022-10-16T05:11:30;1.00;;;0.90;;
74616;SDS011;63123;50.906;4.198;2022-10-16T05:13:56;0.90;;;0.80;;
74616;SDS011;63123;50.906;4.198;2022-10-16T05:16:22;1.27;;;1.00;;
74616;SDS011;63123;50.906;4.198;2022-10-16T05:18:47;1.15;;;1.00;;
74616;SDS011;63123;50.906;4.198;2022-10-16T05:21:13;1.05;;;0.90;;
74616;SDS011;63123;50.906;4.198;2022-10-16T05:23:38;0.65;;;0.60;;
74616;SDS011;63123;50.906;4.198;2022-10-16T05:26:04;1.00;;;0.90;;
74616;SDS011;63123;50.906;4.198;2022-10-16T05:28:30;0.93;;;0.82;;
74616;SDS011;63123;50.906;4.198;2022-10-16T05:30:56;1.15;;;1.02;;
74616;SDS011;63123;50.906;4.198;2022-10-16T05:33:23;1.05;;;0.82;;
74616;SDS011;63123;50.906;4.198;2022-10-16T05:35:50;0.98;;;0.80;;
74616;SDS011;63123;50.906;4.198;2022-10-16T05:38:16;1.00;;;0.90;;
74616;SDS011;63123;50.906;4.198;2022-10-16T05:40:42;1.13;;;0.80;;
74616;SDS011;63123;50.906;4.198;2022-10-16T05:43:08;0.90;;;0.80;;
74616;SDS011;63123;50.906;4.198;2022-10-16T05:45:33;0.82;;;0.80;;
74616;SDS011;63123;50.906;4.198;2022-10-16T05:48:00;1.00;;;0.90;;
74616;SDS011;63123;50.906;4.198;2022-10-16T05:50:26;1.52;;;1.00;;
74616;SDS011;63123;50.906;4.198;2022-10-16T05:52:51;1.33;;;0.90;;
74616;SDS011;63123;50.906;4.198;2022-10-16T05:55:17;1.13;;;0.90;;
74616;SDS011;63123;50.906;4.198;2022-10-16T05:57:43;0.98;;;0.80;;
74616;SDS011;63123;50.906;4.198;2022-10-16T06:00:09;1.05;;;0.90;;
74616;SDS011;63123;50.906;4.198;2022-10-16T06:02:35;1.23;;;1.13;;
74616;SDS011;63123;50.906;4.198;2022-10-16T06:05:00;1.23;;;0.80;;
74616;SDS011;63123;50.906;4.198;2022-10-16T06:07:26;1.65;;;0.73;;
74616;SDS011;63123;50.906;4.198;2022-10-16T06:09:52;1.52;;;1.00;;
74616;SDS011;63123;50.906;4.198;2022-10-16T06:12:18;1.17;;;1.08;;
74616;SDS011;63123;50.906;4.198;2022-10-16T06:14:44;0.88;;;0.80;;
74616;SDS011;63123;50.906;4.198;2022-10-16T06:17:12;0.80;;;0.80;;
74616;SDS011;63123;50.906;4.198;2022-10-16T06:19:38;0.93;;;0.82;;
74616;SDS011;63123;50.906;4.198;2022-10-16T06:22:04;0.95;;;0.80;;
74616;SDS011;63123;50.906;4.198;2022-10-16T06:24:30;1.15;;;0.93;;
74616;SDS011;63123;50.906;4.198;2022-10-16T06:26:56;1.00;;;0.88;;
74616;SDS011;63123;50.906;4.198;2022-10-16T06:29:21;1.77;;;1.00;;
74616;SDS011;63123;50.906;4.198;2022-10-16T06:31:47;0.98;;;0.88;;
74616;SDS011;63123;50.906;4.198;2022-10-16T06:34:12;0.77;;;0.60;;
74616;SDS011;63123;50.906;4.198;2022-10-16T06:36:38;1.05;;;0.95;;
74616;SDS011;63123;50.906;4.198;2022-10-16T06:39:04;1.45;;;0.77;;
74616;SDS011;63123;50.906;4.198;2022-10-16T06:41:32;1.42;;;0.70;;
74616;SDS011;63123;50.906;4.198;2022-10-16T06:43:58;0.95;;;0.80;;
74616;SDS011;63123;50.906;4.198;2022-10-16T06:46:25;1.13;;;0.90;;
74616;SDS011;63123;50.906;4.198;2022-10-16T06:48:52;1.17;;;0.70;;
74616;SDS011;63123;50.906;4.198;2022-10-16T06:51:21;1.23;;;0.90;;
74616;SDS011;63123;50.906;4.198;2022-10-16T06:53:49;1.25;;;1.15;;
74616;SDS011;63123;50.906;4.198;2022-10-16T06:56:18;1.35;;;0.80;;
74616;SDS011;63123;50.906;4.198;2022-10-16T06:58:43;1.00;;;0.90;;
74616;SDS011;63123;50.906;4.198;2022-10-16T07:01:10;1.02;;;0.93;;
74616;SDS011;63123;50.906;4.198;2022-10-16T07:03:37;0.80;;;0.80;;
74616;SDS011;63123;50.906;4.198;2022-10-16T07:06:04;1.80;;;0.85;;
74616;SDS011;63123;50.906;4.198;2022-10-16T07:08:34;1.05;;;0.85;;
74616;SDS011;63123;50.906;4.198;2022-10-16T07:11:04;1.33;;;0.88;;
74616;SDS011;63123;50.906;4.198;2022-10-16T07:13:34;1.00;;;0.90;;
74616;SDS011;63123;50.906;4.198;2022-10-16T07:16:20;2.85;;;0.80;;
74616;SDS011;63123;50.906;4.198;2022-10-16T07:18:46;0.70;;;0.68;;
74616;SDS011;63123;50.906;4.198;2022-10-16T07:21:20;0.80;;;0.80;;
74616;SDS011;63123;50.906;4.198;2022-10-16T07:23:50;1.20;;;0.70;;
74616;SDS011;63123;50.906;4.198;2022-10-16T07:26:16;1.38;;;1.02;;
74616;SDS011;63123;50.906;4.198;2022-10-16T07:28:42;1.38;;;0.73;;
74616;SDS011;63123;50.906;4.198;2022-10-16T07:31:09;1.00;;;0.90;;
74616;SDS011;63123;50.906;4.198;2022-10-16T07:33:37;1.13;;;1.00;;
74616;SDS011;63123;50.906;4.198;2022-10-16T07:36:03;1.60;;;0.95;;
74616;SDS011;63123;50.906;4.198;2022-10-16T07:38:29;2.05;;;1.10;;
74616;SDS011;63123;50.906;4.198;2022-10-16T07:40:59;0.90;;;0.90;;
74616;SDS011;63123;50.906;4.198;2022-10-16T07:43:26;1.05;;;0.95;;
74616;SDS011;63123;50.906;4.198;2022-10-16T07:45:52;0.80;;;0.80;;
74616;SDS011;63123;50.906;4.198;2022-10-16T07:48:19;0.90;;;0.80;;
74616;SDS011;63123;50.906;4.198;2022-10-16T07:50:46;1.88;;;1.10;;
74616;SDS011;63123;50.906;4.198;2022-10-16T07:53:12;1.05;;;0.98;;
74616;SDS011;63123;50.906;4.198;2022-10-16T07:55:38;1.50;;;0.90;;
74616;SDS011;63123;50.906;4.198;2022-10-16T07:58:04;1.30;;;0.90;;
74616;SDS011;63123;50.906;4.198;2022-10-16T08:00:30;0.70;;;0.70;;
74616;SDS011;63123;50.906;4.198;2022-10-16T08:02:56;1.00;;;0.90;;
74616;SDS011;63123;50.906;4.198;2022-10-16T08:05:25;0.85;;;0.85;;
74616;SDS011;63123;50.906;4.198;2022-10-16T08:07:52;1.10;;;0.82;;
74616;SDS011;63123;50.906;4.198;2022-10-16T08:10:18;1.10;;;0.93;;
74616;SDS011;63123;50.906;4.198;2022-10-16T08:12:46;1.38;;;0.70;;
74616;SDS011;63123;50.906;4.198;2022-10-16T08:15:12;0.95;;;0.85;;
74616;SDS011;63123;50.906;4.198;2022-10-16T08:17:37;1.30;;;1.00;;
74616;SDS011;63123;50.906;4.198;2022-10-16T08:20:03;1.63;;;1.00;;
74616;SDS011;63123;50.906;4.198;2022-10-16T08:22:29;1.15;;;1.05;;
74616;SDS011;63123;50.906;4.198;2022-10-16T08:24:55;0.60;;;0.57;;
74616;SDS011;63123;50.906;4.198;2022-10-16T08:27:20;1.05;;;0.70;;
74616;SDS011;63123;50.906;4.198;2022-10-16T08:29:48;0.90;;;0.80;;
74616;SDS011;63123;50.906;4.198;2022-10-16T08:32:13;0.82;;;0.77;;
74616;SDS011;63123;50.906;4.198;2022-10-16T08:34:39;1.60;;;1.00;;
74616;SDS011;63123;50.906;4.198;2022-10-16T08:37:05;1.25;;;0.90;;
74616;SDS011;63123;50.906;4.198;2022-10-16T08:39:32;1.33;;;0.70;;
74616;SDS011;63123;50.906;4.198;2022-10-16T08:47:43;1.33;;;1.00;;
74616;SDS011;63123;50.906;4.198;2022-10-16T08:50:17;0.98;;;0.85;;
74616;SDS011;63123;50.906;4.198;2022-10-16T08:52:49;1.15;;;1.05;;
74616;SDS011;63123;50.906;4.198;2022-10-16T08:55:28;0.95;;;0.85;;
74616;SDS011;63123;50.906;4.198;2022-10-16T08:58:02;0.77;;;0.77;;
74616;SDS011;63123;50.906;4.198;2022-10-16T09:00:37;1.52;;;0.77;;
74616;SDS011;63123;50.906;4.198;2022-10-16T09:06:00;1.08;;;0.80;;
74616;SDS011;63123;50.906;4.198;2022-10-16T09:11:25;1.20;;;0.82;;
74616;SDS011;63123;50.906;4.198;2022-10-16T09:19:41;1.25;;;0.70;;
74616;SDS011;63123;50.906;4.198;2022-10-16T09:22:14;1.45;;;1.00;;
74616;SDS011;63123;50.906;4.198;2022-10-16T09:24:41;1.10;;;0.90;;
74616;SDS011;63123;50.906;4.198;2022-10-16T09:27:10;1.05;;;0.95;;
74616;SDS011;63123;50.906;4.198;2022-10-16T09:29:38;1.35;;;1.02;;
74616;SDS011;63123;50.906;4.198;2022-10-16T09:32:11;1.05;;;0.90;;
74616;SDS011;63123;50.906;4.198;2022-10-16T09:34:42;1.50;;;0.90;;
74616;SDS011;63123;50.906;4.198;2022-10-16T09:37:14;1.40;;;1.08;;
74616;SDS011;63123;50.906;4.198;2022-10-16T09:39:46;1.45;;;1.08;;
74616;SDS011;63123;50.906;4.198;2022-10-16T09:42:15;1.15;;;0.80;;
74616;SDS011;63123;50.906;4.198;2022-10-16T09:44:48;1.80;;;0.80;;
74616;SDS011;63123;50.906;4.198;2022-10-16T09:47:17;2.05;;;0.93;;
74616;SDS011;63123;50.906;4.198;2022-10-16T09:49:58;1.63;;;0.90;;
74616;SDS011;63123;50.906;4.198;2022-10-16T09:52:27;1.35;;;0.90;;
74616;SDS011;63123;50.906;4.198;2022-10-16T09:55:13;1.20;;;0.90;;
74616;SDS011;63123;50.906;4.198;2022-10-16T10:00:19;1.83;;;0.80;;
74616;SDS011;63123;50.906;4.198;2022-10-16T10:02:46;1.98;;;1.00;;
74616;SDS011;63123;50.906;4.198;2022-10-16T10:05:20;1.38;;;1.02;;
74616;SDS011;63123;50.906;4.198;2022-10-16T10:07:53;1.60;;;1.02;;
74616;SDS011;63123;50.906;4.198;2022-10-16T10:10:27;1.00;;;0.70;;
74616;SDS011;63123;50.906;4.198;2022-10-16T10:12:55;1.67;;;1.30;;
74616;SDS011;63123;50.906;4.198;2022-10-16T10:15:22;1.48;;;0.90;;
74616;SDS011;63123;50.906;4.198;2022-10-16T10:17:52;2.55;;;1.08;;
74616;SDS011;63123;50.906;4.198;2022-10-16T10:22:52;1.48;;;0.80;;
74616;SDS011;63123;50.906;4.198;2022-10-16T10:28:00;1.15;;;0.80;;
74616;SDS011;63123;50.906;4.198;2022-10-16T10:31:14;0.93;;;0.70;;
74616;SDS011;63123;50.906;4.198;2022-10-16T10:36:39;2.63;;;1.33;;
74616;SDS011;63123;50.906;4.198;2022-10-16T10:52:36;1.15;;;0.80;;
74616;SDS011;63123;50.906;4.198;2022-10-16T10:55:26;1.52;;;0.88;;
74616;SDS011;63123;50.906;4.198;2022-10-16T11:11:09;1.08;;;0.80;;
74616;SDS011;63123;50.906;4.198;2022-10-16T11:13:45;1.08;;;0.90;;
74616;SDS011;63123;50.906;4.198;2022-10-16T11:21:43;1.05;;;0.90;;
74616;SDS011;63123;50.906;4.198;2022-10-16T11:24:19;1.55;;;0.90;;
74616;SDS011;63123;50.906;4.198;2022-10-16T11:26:49;1.30;;;0.80;;
74616;SDS011;63123;50.906;4.198;2022-10-16T11:29:24;0.77;;;0.73;;
74616;SDS011;63123;50.906;4.198;2022-10-16T11:34:23;2.03;;;0.90;;
74616;SDS011;63123;50.906;4.198;2022-10-16T11:36:57;1.25;;;0.88;;
74616;SDS011;63123;50.906;4.198;2022-10-16T11:39:30;1.67;;;0.90;;
74616;SDS011;63123;50.906;4.198;2022-10-16T11:47:37;4.82;;;1.08;;
74616;SDS011;63123;50.906;4.198;2022-10-16T11:55:31;2.72;;;0.90;;
74616;SDS011;63123;50.906;4.198;2022-10-16T11:58:05;1.42;;;0.80;;
74616;SDS011;63123;50.906;4.198;2022-10-16T12:00:56;1.60;;;0.82;;
74616;SDS011;63123;50.906;4.198;2022-10-16T12:03:42;1.02;;;0.88;;
74616;SDS011;63123;50.906;4.198;2022-10-16T12:08:58;1.48;;;0.85;;
74616;SDS011;63123;50.906;4.198;2022-10-16T12:16:53;0.80;;;0.50;;
74616;SDS011;63123;50.906;4.198;2022-10-16T12:19:25;1.95;;;0.80;;
74616;SDS011;63123;50.906;4.198;2022-10-16T12:21:54;1.77;;;0.90;;
74616;SDS011;63123;50.906;4.198;2022-10-16T12:26:57;1.10;;;0.70;;
74616;SDS011;63123;50.906;4.198;2022-10-16T12:29:27;1.13;;;0.77;;
74616;SDS011;63123;50.906;4.198;2022-10-16T12:31:53;0.80;;;0.63;;
74616;SDS011;63123;50.906;4.198;2022-10-16T12:34:21;6.03;;;1.15;;
74616;SDS011;63123;50.906;4.198;2022-10-16T12:36:51;1.30;;;0.90;;
74616;SDS011;63123;50.906;4.198;2022-10-16T12:39:20;1.63;;;0.90;;
74616;SDS011;63123;50.906;4.198;2022-10-16T12:41:48;1.00;;;0.73;;
74616;SDS011;63123;50.906;4.198;2022-10-16T12:44:25;1.33;;;0.77;;
74616;SDS011;63123;50.906;4.198;2022-10-16T12:46:53;2.97;;;0.90;;
74616;SDS011;63123;50.906;4.198;2022-10-16T12:49:22;1.83;;;1.00;;
74616;SDS011;63123;50.906;4.198;2022-10-16T12:51:55;1.70;;;0.73;;
74616;SDS011;63123;50.906;4.198;2022-10-16T12:54:22;1.00;;;0.60;;
74616;SDS011;63123;50.906;4.198;2022-10-16T13:00:10;0.85;;;0.70;;
74616;SDS011;63123;50.906;4.198;2022-10-16T13:11:14;2.63;;;0.90;;
74616;SDS011;63123;50.906;4.198;2022-10-16T13:16:49;1.02;;;0.88;;
74616;SDS011;63123;50.906;4.198;2022-10-16T13:19:34;1.42;;;0.68;;
74616;SDS011;63123;50.906;4.198;2022-10-16T13:22:24;1.05;;;0.68;;
74616;SDS011;63123;50.906;4.198;2022-10-16T13:27:56;1.65;;;0.70;;
74616;SDS011;63123;50.906;4.198;2022-10-16T13:30:26;1.48;;;0.82;;
74616;SDS011;63123;50.906;4.198;2022-10-16T13:35:46;1.50;;;0.70;;
74616;SDS011;63123;50.906;4.198;2022-10-16T13:38:17;1.13;;;0.70;;
74616;SDS011;63123;50.906;4.198;2022-10-16T13:40:52;0.88;;;0.55;;
74616;SDS011;63123;50.906;4.198;2022-10-16T13:43:18;1.15;;;0.40;;
74616;SDS011;63123;50.906;4.198;2022-10-16T13:46:21;1.45;;;0.70;;
74616;SDS011;63123;50.906;4.198;2022-10-16T13:51:25;1.73;;;0.90;;
74616;SDS011;63123;50.906;4.198;2022-10-16T13:53:51;2.55;;;1.23;;
74616;SDS011;63123;50.906;4.198;2022-10-16T13:56:18;1.95;;;1.13;;
74616;SDS011;63123;50.906;4.198;2022-10-16T13:58:46;1.33;;;0.80;;
74616;SDS011;63123;50.906;4.198;2022-10-16T14:01:40;1.23;;;0.70;;
74616;SDS011;63123;50.906;4.198;2022-10-16T14:04:08;1.45;;;0.63;;
74616;SDS011;63123;50.906;4.198;2022-10-16T14:06:36;1.15;;;0.93;;
74616;SDS011;63123;50.906;4.198;2022-10-16T14:09:24;0.90;;;0.68;;
74616;SDS011;63123;50.906;4.198;2022-10-16T14:11:54;1.45;;;0.60;;
74616;SDS011;63123;50.906;4.198;2022-10-16T14:14:22;1.38;;;0.63;;
74616;SDS011;63123;50.906;4.198;2022-10-16T14:16:48;1.33;;;1.20;;
74616;SDS011;63123;50.906;4.198;2022-10-16T14:19:26;1.10;;;0.80;;
74616;SDS011;63123;50.906;4.198;2022-10-16T14:21:54;1.40;;;1.00;;
74616;SDS011;63123;50.906;4.198;2022-10-16T14:24:24;1.48;;;0.80;;
74616;SDS011;63123;50.906;4.198;2022-10-16T14:26:58;0.70;;;0.60;;
74616;SDS011;63123;50.906;4.198;2022-10-16T14:29:25;1.25;;;0.75;;
74616;SDS011;63123;50.906;4.198;2022-10-16T14:31:56;0.82;;;0.63;;
74616;SDS011;63123;50.906;4.198;2022-10-16T14:34:33;1.27;;;0.85;;
74616;SDS011;63123;50.906;4.198;2022-10-16T14:40:00;0.88;;;0.63;;
74616;SDS011;63123;50.906;4.198;2022-10-16T14:42:27;1.35;;;0.90;;
74616;SDS011;63123;50.906;4.198;2022-10-16T14:44:53;1.15;;;0.75;;
74616;SDS011;63123;50.906;4.198;2022-10-16T14:47:21;1.30;;;0.95;;
74616;SDS011;63123;50.906;4.198;2022-10-16T14:49:51;2.53;;;0.85;;
74616;SDS011;63123;50.906;4.198;2022-10-16T14:52:19;0.70;;;0.60;;
74616;SDS011;63123;50.906;4.198;2022-10-16T14:54:47;1.00;;;0.70;;
74616;SDS011;63123;50.906;4.198;2022-10-16T14:57:18;1.65;;;0.65;;
74616;SDS011;63123;50.906;4.198;2022-10-16T14:59:45;1.90;;;0.95;;
74616;SDS011;63123;50.906;4.198;2022-10-16T15:02:33;1.25;;;0.70;;
74616;SDS011;63123;50.906;4.198;2022-10-16T15:05:04;0.82;;;0.60;;
74616;SDS011;63123;50.906;4.198;2022-10-16T15:07:36;0.85;;;0.73;;
74616;SDS011;63123;50.906;4.198;2022-10-16T15:10:02;1.15;;;0.80;;
74616;SDS011;63123;50.906;4.198;2022-10-16T15:12:28;0.90;;;0.70;;
74616;SDS011;63123;50.906;4.198;2022-10-16T15:14:53;0.73;;;0.60;;
74616;SDS011;63123;50.906;4.198;2022-10-16T15:17:19;1.10;;;0.80;;
74616;SDS011;63123;50.906;4.198;2022-10-16T15:19:45;1.33;;;0.90;;
74616;SDS011;63123;50.906;4.198;2022-10-16T15:22:10;1.48;;;0.80;;
74616;SDS011;63123;50.906;4.198;2022-10-16T15:24:37;1.10;;;0.70;;
74616;SDS011;63123;50.906;4.198;2022-10-16T15:27:02;1.08;;;0.80;;
74616;SDS011;63123;50.906;4.198;2022-10-16T15:29:28;0.90;;;0.80;;
74616;SDS011;63123;50.906;4.198;2022-10-16T15:31:54;1.35;;;0.77;;
74616;SDS011;63123;50.906;4.198;2022-10-16T15:34:19;0.75;;;0.75;;
74616;SDS011;63123;50.906;4.198;2022-10-16T15:36:45;1.40;;;0.88;;
74616;SDS011;63123;50.906;4.198;2022-10-16T15:39:12;1.17;;;0.60;;
74616;SDS011;63123;50.906;4.198;2022-10-16T15:41:39;1.35;;;0.70;;
74616;SDS011;63123;50.906;4.198;2022-10-16T15:44:06;1.13;;;0.65;;
74616;SDS011;63123;50.906;4.198;2022-10-16T15:46:31;1.80;;;0.80;;
74616;SDS011;63123;50.906;4.198;2022-10-16T15:48:58;0.75;;;0.60;;
74616;SDS011;63123;50.906;4.198;2022-10-16T15:51:24;0.95;;;0.70;;
74616;SDS011;63123;50.906;4.198;2022-10-16T15:53:55;0.95;;;0.80;;
74616;SDS011;63123;50.906;4.198;2022-10-16T15:56:21;1.25;;;0.85;;
74616;SDS011;63123;50.906;4.198;2022-10-16T15:58:48;1.13;;;0.82;;
74616;SDS011;63123;50.906;4.198;2022-10-16T16:01:13;1.15;;;0.88;;
74616;SDS011;63123;50.906;4.198;2022-10-16T16:03:39;1.00;;;0.90;;
74616;SDS011;63123;50.906;4.198;2022-10-16T16:06:06;2.38;;;0.88;;
74616;SDS011;63123;50.906;4.198;2022-10-16T16:08:33;0.80;;;0.77;;
74616;SDS011;63123;50.906;4.198;2022-10-16T16:11:09;1.30;;;0.90;;
74616;SDS011;63123;50.906;4.198;2022-10-16T16:13:36;1.73;;;0.80;;
74616;SDS011;63123;50.906;4.198;2022-10-16T16:16:13;1.40;;;0.90;;
74616;SDS011;63123;50.906;4.198;2022-10-16T16:18:39;1.13;;;0.80;;
74616;SDS011;63123;50.906;4.198;2022-10-16T16:21:06;1.63;;;0.90;;
74616;SDS011;63123;50.906;4.198;2022-10-16T16:23:32;1.80;;;1.20;;
74616;SDS011;63123;50.906;4.198;2022-10-16T16:26:09;1.20;;;0.80;;
74616;SDS011;63123;50.906;4.198;2022-10-16T16:28:35;1.20;;;1.00;;
74616;SDS011;63123;50.906;4.198;2022-10-16T16:31:02;1.50;;;1.20;;
74616;SDS011;63123;50.906;4.198;2022-10-16T16:33:28;1.30;;;1.13;;
74616;SDS011;63123;50.906;4.198;2022-10-16T16:36:01;1.20;;;0.90;;
74616;SDS011;63123;50.906;4.198;2022-10-16T16:38:28;1.67;;;1.20;;
74616;SDS011;63123;50.906;4.198;2022-10-16T16:40:54;1.17;;;1.08;;
74616;SDS011;63123;50.906;4.198;2022-10-16T16:43:26;1.40;;;1.27;;
74616;SDS011;63123;50.906;4.198;2022-10-16T16:45:52;1.25;;;0.90;;
74616;SDS011;63123;50.906;4.198;2022-10-16T16:48:19;1.52;;;1.42;;
74616;SDS011;63123;50.906;4.198;2022-10-16T16:50:46;1.30;;;1.20;;
74616;SDS011;63123;50.906;4.198;2022-10-16T16:53:11;1.60;;;1.15;;
74616;SDS011;63123;50.906;4.198;2022-10-16T16:55:37;1.63;;;1.52;;
74616;SDS011;63123;50.906;4.198;2022-10-16T16:58:02;1.48;;;1.02;;
74616;SDS011;63123;50.906;4.198;2022-10-16T17:00:29;1.27;;;1.08;;